createdAt,value
2024-03-10T00:03:02.079Z,69.10
2024-03-10T00:08:06.360Z,69.40
2024-03-10T00:13:10.161Z,69.30
2024-03-10T00:18:14.964Z,69.40
2024-03-10T00:23:18.785Z,69.60
2024-03-10T00:28:22.373Z,69.50
2024-03-10T00:33:27.137Z,69.60
2024-03-10T00:38:30.584Z,69.70
2024-03-10T00:43:34.927Z,69.70
2024-03-10T00:48:39.770Z,70.30
2024-03-10T00:53:43.137Z,71.10
2024-03-10T00:58:47.062Z,70.90
2024-03-10T01:03:52.449Z,71.00
2024-03-10T01:08:55.900Z,71.30
2024-03-10T01:13:59.294Z,71.30
2024-03-10T01:19:04.022Z,71.70
2024-03-10T01:24:09.112Z,76.40
2024-03-10T01:29:12.552Z,73.90
2024-03-10T01:34:17.425Z,72.80
2024-03-10T01:39:20.729Z,72.40
2024-03-10T01:44:25.255Z,71.80
2024-03-10T01:49:30.693Z,71.80
2024-03-10T01:54:37.066Z,71.60
2024-03-10T01:59:40.873Z,71.80
2024-03-10T02:04:45.886Z,71.50
2024-03-10T02:09:49.270Z,71.70
2024-03-10T02:15:02.652Z,71.70
2024-03-10T02:20:21.210Z,72.10
2024-03-10T02:25:26.041Z,72.20
2024-03-10T02:30:33.837Z,71.80
2024-03-10T02:35:54.763Z,71.80
2024-03-10T02:41:15.818Z,71.90
2024-03-10T02:46:37.963Z,71.60
2024-03-10T02:51:43.748Z,71.90
2024-03-10T02:56:47.060Z,72.20
2024-03-10T03:01:51.894Z,71.70
2024-03-10T03:06:55.594Z,71.60
2024-03-10T03:11:59.149Z,71.30
2024-03-10T03:17:06.511Z,71.30
2024-03-10T03:22:10.038Z,71.30
2024-03-10T03:27:13.430Z,71.10
2024-03-10T03:32:18.479Z,71.30
2024-03-10T03:37:22.992Z,71.30
2024-03-10T03:42:26.594Z,71.30
2024-03-10T03:47:31.458Z,71.40
2024-03-10T03:52:34.997Z,71.70
2024-03-10T03:57:38.372Z,71.50
2024-03-10T04:02:47.781Z,71.70
2024-03-10T04:07:51.498Z,71.90
2024-03-10T04:12:55.161Z,71.90
2024-03-10T04:18:00.362Z,72.00
2024-03-10T04:23:06.637Z,72.20
2024-03-10T04:28:10.246Z,72.20
2024-03-10T04:33:15.458Z,72.20
2024-03-10T04:38:19.012Z,72.40
2024-03-10T04:43:23.785Z,72.40
2024-03-10T04:48:29.205Z,72.40
2024-03-10T04:53:33.880Z,72.60
2024-03-10T04:58:37.223Z,72.50
2024-03-10T05:03:42.329Z,72.60
2024-03-10T05:08:45.700Z,72.80
2024-03-10T05:13:49.327Z,72.60
2024-03-10T05:18:55.028Z,72.60
2024-03-10T05:23:58.340Z,72.80
2024-03-10T05:29:01.773Z,72.70
2024-03-10T05:34:06.593Z,72.80
2024-03-10T05:39:10.066Z,72.90
2024-03-10T05:44:15.399Z,72.80
2024-03-10T05:49:20.230Z,72.90
2024-03-10T05:54:23.709Z,73.00
2024-03-10T05:59:27.858Z,73.00
2024-03-10T06:04:33.175Z,73.00
2024-03-10T06:09:36.608Z,73.20
2024-03-10T06:14:40.970Z,73.20
2024-03-10T06:20:03.076Z,73.20
2024-03-10T06:25:29.249Z,73.40
2024-03-10T06:30:32.864Z,73.30
2024-03-10T06:35:37.841Z,73.30
2024-03-10T06:40:41.165Z,73.50
2024-03-10T06:45:45.373Z,73.50
2024-03-10T06:50:50.167Z,73.50
2024-03-10T06:55:55.042Z,73.60
2024-03-10T07:00:59.362Z,73.50
2024-03-10T07:06:04.669Z,73.60
2024-03-10T07:11:09.432Z,73.90
2024-03-10T07:16:13.008Z,73.80
2024-03-10T07:21:20.954Z,73.80
2024-03-10T07:26:24.684Z,74.10
2024-03-10T07:31:28.097Z,73.70
2024-03-10T07:36:32.868Z,73.80
2024-03-10T07:41:36.410Z,73.90
2024-03-10T07:46:39.826Z,73.80
2024-03-10T07:51:44.543Z,73.90
2024-03-10T07:56:48.963Z,74.20
2024-03-10T08:01:52.457Z,74.30
2024-03-10T08:06:57.192Z,75.60
2024-03-10T08:12:00.682Z,75.50
2024-03-10T08:17:04.346Z,75.00
2024-03-10T08:22:10.242Z,75.00
2024-03-10T08:27:14.177Z,74.90
2024-03-10T08:32:17.586Z,75.10
2024-03-10T08:37:22.623Z,74.90
2024-03-10T08:42:29.128Z,75.20
2024-03-10T08:47:33.021Z,75.30
2024-03-10T08:52:38.603Z,75.60
2024-03-10T08:57:44.665Z,75.40
2024-03-10T09:02:48.149Z,75.20
2024-03-10T09:07:53.276Z,74.60
2024-03-10T09:12:56.791Z,73.80
2024-03-10T09:18:01.317Z,73.70
2024-03-10T09:23:06.333Z,73.60
2024-03-10T09:28:09.607Z,73.10
2024-03-10T09:33:13.228Z,72.60
2024-03-10T09:38:18.456Z,72.30
2024-03-10T09:43:24.825Z,71.30
2024-03-10T09:48:29.315Z,71.00
2024-03-10T09:53:34.134Z,71.10
2024-03-10T09:58:48.371Z,71.20
2024-03-10T10:03:54.010Z,70.90
2024-03-10T10:09:00.480Z,70.80
2024-03-10T10:14:08.510Z,70.70
2024-03-10T10:19:17.017Z,70.90
2024-03-10T10:24:22.488Z,71.10
2024-03-10T10:29:26.562Z,71.50
2024-03-10T10:34:31.010Z,72.30
2024-03-10T10:39:37.299Z,71.30
2024-03-10T10:44:41.935Z,71.40
2024-03-10T10:49:45.846Z,71.50
2024-03-10T10:54:50.573Z,71.40
2024-03-10T10:59:54.012Z,71.00
2024-03-10T11:05:01.389Z,70.90
2024-03-10T11:10:44.256Z,69.80
2024-03-10T11:15:49.071Z,69.00
2024-03-10T11:20:54.447Z,69.10
2024-03-10T11:26:06.704Z,68.70
2024-03-10T11:31:11.888Z,68.20
2024-03-10T11:36:15.257Z,68.60
2024-03-10T11:41:19.084Z,68.70
2024-03-10T11:46:26.430Z,68.60
2024-03-10T11:51:31.297Z,69.40
2024-03-10T11:56:34.627Z,69.00
2024-03-10T12:01:42.054Z,69.10
2024-03-10T12:06:45.793Z,68.80
2024-03-10T12:11:49.242Z,69.20
2024-03-10T12:16:54.322Z,70.80
2024-03-10T12:21:58.694Z,70.10
2024-03-10T12:27:06.356Z,69.40
2024-03-10T12:32:11.626Z,67.30
2024-03-10T12:37:16.075Z,66.00
2024-03-10T12:42:21.797Z,65.60
2024-03-10T12:47:27.279Z,64.70
2024-03-10T12:52:30.689Z,63.90
2024-03-10T12:57:34.000Z,63.70
2024-03-10T13:02:38.806Z,63.50
2024-03-10T13:07:42.435Z,62.90
2024-03-10T13:12:45.995Z,62.90
2024-03-10T13:17:50.983Z,62.90
2024-03-10T13:22:54.436Z,62.20
2024-03-10T13:27:57.819Z,62.20
2024-03-10T13:33:02.751Z,62.10
2024-03-10T13:38:06.389Z,62.90
2024-03-10T13:43:11.646Z,62.20
2024-03-10T13:48:16.326Z,62.40
2024-03-10T13:53:21.850Z,62.50
2024-03-10T13:58:25.352Z,62.70
2024-03-10T14:03:30.094Z,62.50
2024-03-10T14:08:35.165Z,62.60
2024-03-10T14:13:38.894Z,62.60
2024-03-10T14:18:44.216Z,62.70
2024-03-10T14:23:47.756Z,62.70
2024-03-10T14:28:51.109Z,62.70
2024-03-10T14:33:55.820Z,62.70
2024-03-10T14:38:59.246Z,62.60
2024-03-10T14:44:04.200Z,63.00
2024-03-10T14:49:10.010Z,62.90
2024-03-10T14:54:13.540Z,62.80
2024-03-10T14:59:17.016Z,62.80
2024-03-10T15:04:22.256Z,62.80
2024-03-10T15:09:26.642Z,62.80
2024-03-10T15:14:29.991Z,62.60
2024-03-10T15:19:35.978Z,62.80
2024-03-10T15:24:39.335Z,62.40
2024-03-10T15:29:42.924Z,62.40
2024-03-10T15:34:47.637Z,62.60
2024-03-10T15:39:53.023Z,62.30
2024-03-10T15:44:56.348Z,62.50
2024-03-10T15:50:02.473Z,62.60
2024-03-10T15:55:07.414Z,62.70
2024-03-10T16:00:12.647Z,62.60
2024-03-10T16:05:23.215Z,62.70
2024-03-10T16:10:27.754Z,62.40
2024-03-10T16:15:35.022Z,63.30
2024-03-10T16:20:45.994Z,63.00
2024-03-10T16:25:51.040Z,62.70
2024-03-10T16:30:54.539Z,62.90
2024-03-10T16:35:59.484Z,63.00
2024-03-10T16:41:03.040Z,63.00
2024-03-10T16:46:07.113Z,63.10
2024-03-10T16:51:12.351Z,63.10
2024-03-10T16:56:16.188Z,63.40
2024-03-10T17:01:21.250Z,63.40
2024-03-10T17:06:26.445Z,63.60
2024-03-10T17:11:31.502Z,63.60
2024-03-10T17:16:35.940Z,63.80
2024-03-10T17:21:40.870Z,63.70
2024-03-10T17:26:44.944Z,63.60
2024-03-10T17:31:48.512Z,63.60
2024-03-10T17:36:53.899Z,63.60
2024-03-10T17:41:57.914Z,63.60
2024-03-10T17:47:01.579Z,63.60
2024-03-10T17:52:07.256Z,63.60
2024-03-10T17:57:11.487Z,63.80
2024-03-10T18:02:15.993Z,63.80
2024-03-10T18:07:21.508Z,63.80
2024-03-10T18:12:25.149Z,63.80
2024-03-10T18:17:28.855Z,63.80
2024-03-10T18:22:34.515Z,63.80
2024-03-10T18:27:40.501Z,64.00
2024-03-10T18:32:45.299Z,64.20
2024-03-10T18:37:50.933Z,64.10
2024-03-10T18:42:55.302Z,64.20
2024-03-10T18:48:00.403Z,64.30
2024-03-10T18:53:06.820Z,64.60
2024-03-10T18:58:10.774Z,64.80
2024-03-10T19:03:14.332Z,64.60
2024-03-10T19:08:21.629Z,64.70
2024-03-10T19:13:25.458Z,64.70
2024-03-10T19:18:29.371Z,64.80
2024-03-10T19:23:34.375Z,65.00
2024-03-10T19:28:39.428Z,64.90
2024-03-10T19:33:43.055Z,65.00
2024-03-10T19:38:48.878Z,65.10
2024-03-10T19:43:55.002Z,65.20
2024-03-10T19:49:00.072Z,65.20
2024-03-10T19:54:05.111Z,65.50
2024-03-10T19:59:09.619Z,66.70
2024-03-10T20:04:13.440Z,66.70
2024-03-10T20:09:18.740Z,66.40
2024-03-10T20:14:22.329Z,66.20
2024-03-10T20:19:25.823Z,66.00
2024-03-10T20:24:30.909Z,66.00
2024-03-10T20:29:34.746Z,66.00
2024-03-10T20:34:38.260Z,66.00
2024-03-10T20:39:43.767Z,66.00
2024-03-10T20:44:48.117Z,66.00
2024-03-10T20:49:51.704Z,65.90
2024-03-10T20:54:57.555Z,66.00
2024-03-10T21:00:01.430Z,66.00
2024-03-10T21:05:05.705Z,66.00
2024-03-10T21:10:12.387Z,66.10
2024-03-10T21:15:16.442Z,66.30
2024-03-10T21:20:19.995Z,66.20
2024-03-10T21:25:29.012Z,66.20
2024-03-10T21:30:32.410Z,66.40
2024-03-10T21:35:35.744Z,66.30
2024-03-10T21:40:40.568Z,66.40
2024-03-10T21:45:46.214Z,66.50
2024-03-10T21:50:49.848Z,66.50
2024-03-10T21:55:54.611Z,66.60
2024-03-10T22:00:58.213Z,66.60
2024-03-10T22:06:01.592Z,66.60
2024-03-10T22:11:07.352Z,66.60
2024-03-10T22:16:10.687Z,66.70
2024-03-10T22:21:14.668Z,66.60
2024-03-10T22:26:19.422Z,66.70
2024-03-10T22:31:22.792Z,66.90
2024-03-10T22:36:26.276Z,66.90
2024-03-10T22:41:31.729Z,66.90
2024-03-10T22:46:36.792Z,66.90
2024-03-10T22:51:40.093Z,66.90
2024-03-10T22:56:46.121Z,66.90
2024-03-10T23:01:49.670Z,66.90
2024-03-10T23:06:53.078Z,66.90
2024-03-10T23:11:57.858Z,66.90
2024-03-10T23:17:01.740Z,67.00
2024-03-10T23:22:05.786Z,67.10
2024-03-10T23:27:10.700Z,67.30
2024-03-10T23:32:14.169Z,67.30
2024-03-10T23:37:19.255Z,67.30
2024-03-10T23:42:23.997Z,67.30
2024-03-10T23:47:27.423Z,67.40
2024-03-10T23:52:30.879Z,67.40
2024-03-10T23:57:35.816Z,67.50
